createdAt,value
2018-12-29T00:01:32.809Z,100.00
2018-12-29T00:04:13.273Z,100.00
2018-12-29T00:06:54.411Z,100.00
2018-12-29T00:09:34.776Z,100.00
2018-12-29T00:12:15.515Z,100.00
2018-12-29T00:14:55.754Z,100.00
2018-12-29T00:17:36.136Z,100.00
2018-12-29T00:20:16.804Z,100.00
2018-12-29T00:22:57.681Z,100.00
2018-12-29T00:25:37.606Z,100.00
2018-12-29T00:28:18.096Z,100.00
2018-12-29T00:30:58.887Z,100.00
2018-12-29T00:33:39.279Z,100.00
2018-12-29T00:36:19.898Z,100.00
2018-12-29T00:39:00.739Z,100.00
2018-12-29T00:41:41.797Z,100.00
2018-12-29T00:44:22.485Z,100.00
2018-12-29T00:47:02.849Z,100.00
2018-12-29T00:49:44.009Z,100.00
2018-12-29T00:52:25.008Z,100.00
2018-12-29T00:55:05.352Z,100.00
2018-12-29T00:57:46.243Z,100.00
2018-12-29T01:00:26.687Z,100.00
2018-12-29T01:03:07.525Z,100.00
2018-12-29T01:05:48.809Z,100.00
2018-12-29T01:08:29.495Z,100.00
2018-12-29T01:11:10.275Z,100.00
2018-12-29T01:13:50.846Z,100.00
2018-12-29T01:16:31.683Z,100.00
2018-12-29T01:19:12.378Z,100.00
2018-12-29T01:21:52.322Z,100.00
2018-12-29T01:24:32.475Z,100.00
2018-12-29T01:27:13.164Z,100.00
2018-12-29T01:29:53.366Z,100.00
2018-12-29T01:32:33.964Z,100.00
2018-12-29T01:35:14.638Z,100.00
2018-12-29T01:37:55.008Z,100.00
2018-12-29T01:40:36.297Z,100.00
2018-12-29T01:43:16.891Z,100.00
2018-12-29T01:45:57.456Z,100.00
2018-12-29T01:48:37.890Z,100.00
2018-12-29T01:51:19.141Z,100.00
2018-12-29T01:53:59.362Z,100.00
2018-12-29T01:56:40.011Z,100.00
2018-12-29T01:59:21.006Z,100.00
2018-12-29T02:02:02.030Z,100.00
2018-12-29T02:04:42.055Z,100.00
2018-12-29T02:07:22.942Z,100.00
2018-12-29T02:10:03.258Z,100.00
2018-12-29T02:12:44.368Z,100.00
2018-12-29T02:15:25.028Z,100.00
2018-12-29T02:18:05.157Z,100.00
2018-12-29T02:20:45.419Z,100.00
2018-12-29T02:23:26.543Z,100.00
2018-12-29T02:26:07.128Z,98.77
2018-12-29T02:28:48.040Z,96.00
2018-12-29T02:31:28.728Z,94.25
2018-12-29T02:34:09.614Z,90.02
2018-12-29T02:36:50.259Z,86.62
2018-12-29T02:39:31.214Z,87.08
2018-12-29T02:42:11.728Z,82.53
2018-12-29T02:44:52.493Z,82.98
2018-12-29T02:47:33.566Z,78.23
2018-12-29T02:50:14.733Z,78.58
2018-12-29T02:52:56.104Z,76.53
2018-12-29T02:55:37.190Z,73.89
2018-12-29T02:58:18.569Z,73.10
2018-12-29T03:00:58.892Z,72.69
2018-12-29T03:03:39.962Z,70.89
2018-12-29T03:06:20.569Z,69.97
2018-12-29T03:09:01.438Z,69.66
2018-12-29T03:11:42.725Z,66.81
2018-12-29T03:14:23.486Z,66.74
2018-12-29T03:17:03.940Z,62.18
2018-12-29T03:19:44.137Z,62.67
2018-12-29T03:22:24.858Z,63.48
2018-12-29T03:25:06.252Z,62.85
2018-12-29T03:27:46.887Z,58.57
2018-12-29T03:30:27.595Z,61.27
2018-12-29T03:33:07.848Z,58.62
2018-12-29T03:35:48.700Z,58.07
2018-12-29T03:38:28.644Z,57.72
2018-12-29T03:41:09.255Z,57.01
2018-12-29T03:43:49.173Z,57.45
2018-12-29T03:46:30.406Z,55.54
2018-12-29T03:49:11.282Z,53.08
2018-12-29T03:51:52.507Z,55.96
2018-12-29T03:54:32.536Z,52.83
2018-12-29T03:57:13.325Z,53.96
2018-12-29T03:59:53.947Z,53.75
2018-12-29T04:02:34.570Z,51.16
2018-12-29T04:05:14.496Z,49.30
2018-12-29T04:07:55.261Z,51.54
2018-12-29T04:10:36.515Z,52.17
2018-12-29T04:13:17.211Z,51.82
2018-12-29T04:15:58.205Z,51.32
2018-12-29T04:18:38.862Z,50.50
2018-12-29T04:21:20.027Z,49.36
2018-12-29T04:24:00.338Z,47.42
2018-12-29T04:29:22.370Z,49.49
2018-12-29T04:32:03.534Z,49.56
2018-12-29T04:34:44.905Z,48.64
2018-12-29T04:37:25.880Z,45.18
2018-12-29T04:40:06.379Z,45.87
2018-12-29T04:42:47.407Z,43.66
2018-12-29T04:45:28.341Z,42.61
2018-12-29T04:48:09.689Z,43.93
2018-12-29T04:50:49.684Z,42.93
2018-12-29T04:53:30.080Z,40.43
2018-12-29T04:56:10.367Z,42.34
2018-12-29T04:58:51.302Z,40.90
2018-12-29T05:01:31.613Z,40.65
2018-12-29T05:04:12.567Z,40.33
2018-12-29T05:06:53.415Z,39.64
2018-12-29T05:09:33.392Z,39.08
2018-12-29T05:12:13.842Z,36.83
2018-12-29T05:14:53.737Z,39.27
2018-12-29T05:17:34.603Z,38.22
2018-12-29T05:20:15.047Z,38.15
2018-12-29T05:22:55.607Z,36.50
2018-12-29T05:25:36.752Z,38.19
2018-12-29T05:28:17.185Z,38.06
2018-12-29T05:30:58.569Z,36.02
2018-12-29T05:33:39.558Z,37.87
2018-12-29T05:36:20.535Z,37.78
2018-12-29T05:39:01.199Z,38.32
2018-12-29T05:41:42.260Z,37.80
2018-12-29T05:44:23.237Z,37.00
2018-12-29T05:47:04.106Z,37.79
2018-12-29T05:49:44.017Z,36.10
2018-12-29T05:52:24.660Z,37.50
2018-12-29T05:55:05.724Z,36.97
2018-12-29T05:57:46.691Z,36.75
2018-12-29T06:00:27.132Z,36.26
2018-12-29T06:03:07.248Z,36.01
2018-12-29T06:05:47.123Z,35.27
2018-12-29T06:08:27.214Z,34.38
2018-12-29T06:11:07.603Z,34.69
2018-12-29T06:13:47.503Z,37.35
2018-12-29T06:16:28.058Z,33.35
2018-12-29T06:19:08.817Z,35.04
2018-12-29T06:21:49.814Z,33.96
2018-12-29T06:24:30.534Z,34.90
2018-12-29T06:27:11.448Z,33.99
2018-12-29T06:29:52.173Z,33.47
2018-12-29T06:32:33.378Z,33.59
2018-12-29T06:35:14.254Z,33.89
2018-12-29T06:37:55.246Z,33.64
2018-12-29T06:40:36.177Z,32.56
2018-12-29T06:43:17.132Z,33.05
2018-12-29T06:45:57.970Z,33.27
2018-12-29T06:48:38.821Z,33.11
2018-12-29T06:51:19.521Z,34.42
2018-12-29T06:54:01.133Z,32.55
2018-12-29T06:56:42.363Z,33.39
2018-12-29T06:59:23.778Z,33.67
2018-12-29T07:02:04.645Z,33.33
2018-12-29T07:04:45.802Z,32.22
2018-12-29T07:07:26.724Z,32.67
2018-12-29T07:10:07.425Z,32.96
2018-12-29T07:12:48.329Z,33.17
2018-12-29T07:15:29.388Z,33.09
2018-12-29T07:18:09.943Z,32.74
2018-12-29T07:20:50.612Z,33.36
2018-12-29T07:23:31.181Z,33.67
2018-12-29T07:26:11.622Z,32.58
2018-12-29T07:28:51.975Z,31.83
2018-12-29T07:31:32.863Z,32.70
2018-12-29T07:34:13.684Z,33.33
2018-12-29T07:36:54.085Z,30.57
2018-12-29T07:39:34.734Z,31.16
2018-12-29T07:42:16.042Z,33.54
2018-12-29T07:44:56.659Z,31.92
2018-12-29T07:47:37.607Z,32.51
2018-12-29T07:50:17.921Z,32.93
2018-12-29T07:52:59.525Z,32.02
2018-12-29T07:55:40.493Z,33.31
2018-12-29T07:58:21.156Z,32.95
2018-12-29T08:01:02.406Z,34.42
2018-12-29T08:03:43.330Z,34.27
2018-12-29T08:06:23.840Z,34.73
2018-12-29T08:09:04.966Z,34.74
2018-12-29T08:11:45.749Z,34.86
2018-12-29T08:14:27.223Z,35.63
2018-12-29T08:17:08.293Z,34.44
2018-12-29T08:19:48.843Z,34.54
2018-12-29T08:22:30.416Z,33.93
2018-12-29T08:25:11.707Z,32.34
2018-12-29T08:27:53.880Z,35.53
2018-12-29T08:30:34.413Z,35.35
2018-12-29T08:33:15.137Z,34.42
2018-12-29T08:35:55.641Z,34.51
2018-12-29T08:38:36.128Z,34.45
2018-12-29T08:41:17.759Z,33.90
2018-12-29T08:43:57.170Z,33.13
2018-12-29T08:46:37.762Z,34.93
2018-12-29T08:49:17.860Z,33.06
2018-12-29T08:51:58.031Z,32.04
2018-12-29T08:54:38.198Z,32.31
2018-12-29T08:57:18.304Z,32.23
2018-12-29T08:59:58.967Z,33.03
2018-12-29T09:02:39.429Z,33.32
2018-12-29T09:05:19.767Z,32.95
2018-12-29T09:08:00.851Z,33.88
2018-12-29T09:10:42.771Z,32.73
2018-12-29T09:13:23.213Z,33.60
2018-12-29T09:16:03.621Z,32.91
2018-12-29T09:18:49.729Z,33.33
2018-12-29T09:21:25.207Z,34.16
2018-12-29T09:24:05.842Z,33.79
2018-12-29T09:26:46.337Z,34.03
2018-12-29T09:29:26.994Z,33.63
2018-12-29T09:32:08.301Z,34.89
2018-12-29T09:34:50.266Z,34.53
2018-12-29T09:37:30.727Z,35.29
2018-12-29T09:40:11.418Z,33.88
2018-12-29T09:42:52.377Z,35.04
2018-12-29T09:45:32.630Z,35.15
2018-12-29T09:48:13.309Z,34.62
2018-12-29T09:50:53.856Z,33.66
2018-12-29T09:53:34.134Z,35.15
2018-12-29T09:56:15.059Z,36.14
2018-12-29T09:58:56.055Z,36.38
2018-12-29T10:01:37.049Z,36.22
2018-12-29T10:04:18.039Z,35.43
2018-12-29T10:06:58.772Z,37.10
2018-12-29T10:09:40.672Z,37.36
2018-12-29T10:12:21.811Z,37.06
2018-12-29T10:15:02.206Z,37.44
2018-12-29T10:17:43.481Z,38.45
2018-12-29T10:20:24.627Z,39.10
2018-12-29T10:23:05.672Z,39.68
2018-12-29T10:25:46.397Z,40.25
2018-12-29T10:28:27.311Z,39.64
2018-12-29T10:33:48.532Z,41.57
2018-12-29T10:36:29.104Z,43.49
2018-12-29T10:39:09.737Z,44.34
2018-12-29T10:41:50.533Z,42.58
2018-12-29T10:44:31.395Z,43.55
2018-12-29T10:47:12.352Z,45.81
2018-12-29T10:49:53.631Z,47.92
2018-12-29T10:52:33.995Z,50.46
2018-12-29T10:55:14.775Z,50.72
2018-12-29T10:57:55.454Z,48.96
2018-12-29T11:00:36.205Z,49.96
2018-12-29T11:03:17.150Z,51.00
2018-12-29T11:05:58.012Z,51.38
2018-12-29T11:08:38.488Z,50.78
2018-12-29T11:11:19.514Z,53.64
2018-12-29T11:14:00.775Z,55.97
2018-12-29T11:16:41.274Z,57.06
2018-12-29T11:19:21.996Z,59.74
2018-12-29T11:22:02.788Z,60.65
2018-12-29T11:24:43.666Z,62.33
2018-12-29T11:27:24.842Z,62.97
2018-12-29T11:30:05.488Z,66.14
2018-12-29T11:32:46.101Z,66.50
2018-12-29T11:35:28.904Z,67.80
2018-12-29T11:38:08.401Z,68.56
2018-12-29T11:40:49.944Z,69.82
2018-12-29T11:43:30.472Z,69.46
2018-12-29T11:46:11.342Z,69.91
2018-12-29T11:48:52.499Z,70.69
2018-12-29T11:51:32.782Z,72.44
2018-12-29T11:54:13.563Z,72.78
2018-12-29T11:56:53.895Z,74.03
2018-12-29T11:59:34.465Z,75.29
2018-12-29T12:02:15.465Z,75.79
2018-12-29T12:04:57.042Z,75.97
2018-12-29T12:07:38.274Z,77.10
2018-12-29T12:10:18.993Z,78.00
2018-12-29T12:12:59.933Z,78.66
2018-12-29T12:15:40.527Z,79.09
2018-12-29T12:18:21.424Z,78.78
2018-12-29T12:21:02.549Z,79.10
2018-12-29T12:23:43.414Z,79.59
2018-12-29T12:26:24.332Z,80.07
2018-12-29T12:29:04.948Z,80.08
2018-12-29T12:31:46.820Z,80.72
2018-12-29T12:34:27.269Z,80.12
2018-12-29T12:37:07.981Z,80.68
2018-12-29T12:39:48.817Z,80.54
2018-12-29T12:42:29.793Z,81.22
2018-12-29T12:45:10.274Z,81.36
2018-12-29T12:47:54.379Z,81.34
2018-12-29T12:50:34.976Z,82.40
2018-12-29T12:53:15.298Z,82.65
2018-12-29T12:55:56.004Z,82.88
2018-12-29T12:58:37.461Z,83.23
2018-12-29T13:01:19.053Z,84.50
2018-12-29T13:03:59.662Z,84.11
2018-12-29T13:06:40.649Z,84.73
2018-12-29T13:09:21.511Z,85.30
2018-12-29T13:12:02.375Z,86.09
2018-12-29T13:14:43.205Z,86.58
2018-12-29T13:17:23.719Z,86.96
2018-12-29T13:20:05.080Z,87.70
2018-12-29T13:22:45.884Z,88.34
2018-12-29T13:25:26.501Z,88.17
2018-12-29T13:28:06.735Z,88.55
2018-12-29T13:30:48.142Z,86.74
2018-12-29T13:33:29.048Z,87.06
2018-12-29T13:36:09.720Z,87.74
2018-12-29T13:41:41.183Z,87.92
2018-12-29T13:44:22.406Z,88.83
2018-12-29T13:47:03.022Z,89.69
2018-12-29T13:49:44.015Z,90.46
2018-12-29T13:52:24.464Z,90.70
2018-12-29T13:55:05.323Z,90.31
2018-12-29T13:57:46.550Z,90.70
2018-12-29T14:00:27.529Z,91.04
2018-12-29T14:03:08.568Z,91.76
2018-12-29T14:05:49.010Z,92.06
2018-12-29T14:08:30.093Z,91.79
2018-12-29T14:11:11.182Z,92.17
2018-12-29T14:13:52.436Z,92.49
2018-12-29T14:16:33.293Z,93.01
2018-12-29T14:19:16.812Z,94.27
2018-12-29T14:21:57.708Z,95.25
2018-12-29T14:24:38.815Z,96.58
2018-12-29T14:27:19.680Z,97.39
2018-12-29T14:30:00.619Z,97.64
2018-12-29T14:32:48.864Z,96.96
2018-12-29T14:35:39.884Z,96.91
2018-12-29T14:41:15.334Z,96.13
2018-12-29T14:44:06.261Z,96.72
2018-12-29T14:46:49.030Z,96.67
2018-12-29T14:49:29.528Z,96.29
2018-12-29T14:52:09.615Z,96.04
2018-12-29T14:54:49.783Z,96.01
2018-12-29T14:57:30.120Z,96.58
2018-12-29T15:00:10.987Z,96.20
2018-12-29T15:02:51.440Z,96.21
2018-12-29T15:05:31.520Z,96.87
2018-12-29T15:08:12.069Z,97.87
2018-12-29T15:10:52.058Z,98.27
2018-12-29T15:13:32.206Z,97.96
2018-12-29T15:16:12.364Z,99.77
2018-12-29T15:18:52.621Z,99.10
2018-12-29T15:21:32.765Z,98.68
2018-12-29T15:24:12.800Z,98.78
2018-12-29T15:26:53.144Z,97.90
2018-12-29T15:29:34.278Z,98.16
2018-12-29T15:32:14.993Z,98.67
2018-12-29T15:34:55.139Z,98.94
2018-12-29T15:37:35.078Z,98.65
2018-12-29T15:40:15.299Z,98.79
2018-12-29T15:42:57.748Z,98.27
2018-12-29T15:45:38.127Z,98.32
2018-12-29T17:34:18.390Z,100.00
2018-12-29T17:37:05.961Z,100.00
2018-12-29T17:39:55.048Z,100.00
2018-12-29T17:42:42.798Z,100.00
2018-12-29T17:45:29.478Z,100.00
2018-12-29T17:48:14.162Z,100.00
2018-12-29T17:50:54.487Z,100.00
2018-12-29T17:53:36.458Z,100.00
2018-12-29T17:56:17.296Z,100.00
2018-12-29T17:58:58.574Z,100.00
2018-12-29T18:01:39.330Z,100.00
2018-12-29T18:04:19.915Z,100.00
2018-12-29T18:07:00.463Z,100.00
2018-12-29T18:09:40.936Z,100.00
2018-12-29T18:12:21.377Z,100.00
2018-12-29T18:15:02.247Z,100.00
2018-12-29T18:17:43.260Z,100.00
2018-12-29T18:20:24.339Z,100.00
2018-12-29T18:23:04.494Z,100.00
2018-12-29T18:25:46.506Z,100.00
2018-12-29T18:28:27.208Z,100.00
2018-12-29T18:31:07.786Z,100.00
2018-12-29T18:33:48.249Z,100.00
2018-12-29T18:36:29.108Z,100.00
2018-12-29T18:39:09.921Z,100.00
2018-12-29T18:41:50.549Z,100.00
2018-12-29T18:44:31.383Z,100.00
2018-12-29T18:47:11.322Z,100.00
2018-12-29T18:49:51.592Z,100.00
2018-12-29T18:52:33.606Z,100.00
2018-12-29T18:55:13.957Z,100.00
2018-12-29T18:57:54.676Z,100.00
2018-12-29T19:00:35.098Z,100.00
2018-12-29T19:03:16.021Z,100.00
2018-12-29T19:05:57.152Z,100.00
2018-12-29T19:08:38.487Z,100.00
2018-12-29T19:11:19.407Z,100.00
2018-12-29T19:14:00.385Z,100.00
2018-12-29T19:16:41.333Z,100.00
2018-12-29T19:19:22.903Z,100.00
2018-12-29T19:22:04.163Z,100.00
2018-12-29T19:24:44.812Z,100.00
2018-12-29T19:27:26.100Z,100.00
2018-12-29T19:30:07.145Z,100.00
2018-12-29T19:32:50.812Z,100.00
2018-12-29T19:35:31.431Z,100.00
2018-12-29T19:38:12.211Z,100.00
2018-12-29T19:40:53.443Z,100.00
2018-12-29T19:43:33.842Z,100.00
2018-12-29T19:46:15.033Z,100.00
2018-12-29T19:48:55.690Z,100.00
2018-12-29T19:51:36.783Z,100.00
2018-12-29T19:54:17.632Z,100.00
2018-12-29T19:56:58.324Z,100.00
2018-12-29T19:59:39.014Z,100.00
2018-12-29T20:02:19.680Z,100.00
2018-12-29T20:05:00.291Z,100.00
2018-12-29T20:07:41.479Z,100.00
2018-12-29T20:10:22.405Z,100.00
2018-12-29T20:13:03.416Z,100.00
2018-12-29T20:15:44.010Z,100.00
2018-12-29T20:18:24.968Z,100.00
2018-12-29T20:21:06.134Z,100.00
2018-12-29T20:23:47.204Z,100.00
2018-12-29T20:26:27.382Z,100.00
2018-12-29T20:29:09.127Z,100.00
2018-12-29T20:31:50.102Z,100.00
2018-12-29T20:34:31.372Z,100.00
2018-12-29T20:37:11.796Z,100.00
2018-12-29T20:39:52.464Z,100.00
2018-12-29T20:42:32.618Z,100.00
2018-12-29T20:45:13.139Z,100.00
2018-12-29T20:47:53.923Z,100.00
2018-12-29T20:50:34.274Z,100.00
2018-12-29T20:53:14.949Z,100.00
2018-12-29T20:55:55.644Z,100.00
2018-12-29T20:58:36.635Z,100.00
2018-12-29T21:01:17.928Z,100.00
2018-12-29T21:03:58.733Z,100.00
2018-12-29T21:06:39.171Z,100.00
2018-12-29T21:09:19.121Z,100.00
2018-12-29T21:11:59.767Z,100.00
2018-12-29T21:14:40.322Z,100.00
2018-12-29T21:17:20.847Z,100.00
2018-12-29T21:20:01.415Z,100.00
2018-12-29T21:22:41.750Z,100.00
2018-12-29T21:25:22.654Z,100.00
2018-12-29T21:28:02.455Z,100.00
2018-12-29T21:30:43.256Z,100.00
2018-12-29T21:33:24.335Z,100.00
2018-12-29T21:36:05.123Z,100.00
2018-12-29T21:38:45.533Z,100.00
2018-12-29T21:41:26.409Z,100.00
2018-12-29T21:44:07.410Z,100.00
2018-12-29T21:46:48.649Z,100.00
2018-12-29T21:49:29.073Z,100.00
2018-12-29T21:52:09.930Z,100.00
2018-12-29T21:54:50.888Z,100.00
2018-12-29T21:57:31.560Z,100.00
2018-12-29T22:00:12.092Z,100.00
2018-12-29T22:02:53.281Z,100.00
2018-12-29T22:05:34.273Z,100.00
2018-12-29T22:08:14.539Z,100.00
2018-12-29T22:10:55.044Z,100.00
2018-12-29T22:13:35.455Z,100.00
2018-12-29T22:16:15.841Z,100.00
2018-12-29T22:18:56.963Z,100.00
2018-12-29T22:21:38.260Z,100.00
2018-12-29T22:24:19.245Z,100.00
2018-12-29T22:26:59.924Z,100.00
2018-12-29T22:29:40.600Z,100.00
2018-12-29T22:32:21.296Z,100.00
2018-12-29T22:35:01.805Z,100.00
2018-12-29T22:37:42.775Z,100.00
2018-12-29T22:40:23.447Z,100.00
2018-12-29T22:43:04.641Z,100.00
2018-12-29T22:45:45.495Z,100.00
2018-12-29T22:48:26.045Z,100.00
2018-12-29T22:51:06.653Z,100.00
2018-12-29T22:53:47.311Z,100.00
2018-12-29T22:56:27.566Z,100.00
2018-12-29T22:59:08.226Z,100.00
2018-12-29T23:01:48.583Z,100.00
2018-12-29T23:04:29.127Z,100.00
2018-12-29T23:07:09.899Z,100.00
2018-12-29T23:09:50.127Z,100.00
2018-12-29T23:12:30.839Z,100.00
2018-12-29T23:15:11.137Z,100.00
2018-12-29T23:17:52.059Z,100.00
2018-12-29T23:20:32.734Z,100.00
2018-12-29T23:23:12.717Z,100.00
2018-12-29T23:25:53.565Z,100.00
2018-12-29T23:28:34.078Z,100.00
2018-12-29T23:31:15.033Z,100.00
2018-12-29T23:33:55.913Z,100.00
2018-12-29T23:36:37.603Z,100.00
2018-12-29T23:39:18.096Z,100.00
2018-12-29T23:41:58.730Z,100.00
2018-12-29T23:44:39.697Z,100.00
2018-12-29T23:47:19.966Z,100.00
2018-12-29T23:50:01.295Z,100.00
2018-12-29T23:52:41.544Z,100.00
2018-12-29T23:55:22.242Z,100.00
2018-12-29T23:58:03.377Z,100.00
